Time;durP1;ratioP1;P1;durP2;ratioP2;P2;SDS_P1;SDS_P2;PMS_P1;PMS_P2;Temp;Humidity;BMP_temperature;BMP_pressure;BME280_temperature;BME280_humidity;BME280_pressure;Samples;Min_cycle;Max_cycle;Signal;HPM_P1;HPM_P2
2022/12/06 00:01:03;;;;;;;13.35;5.60;;;;;;;;;;1807921;78;21572;-70
2022/12/06 00:03:29;;;;;;;7.92;5.17;;;;;;;;;;1782108;80;21099;-71
2022/12/06 00:05:59;;;;;;;10.65;4.95;;;;;;;;;;1789936;79;21036;-71
2022/12/06 00:08:25;;;;;;;10.20;6.00;;;;;;;;;;1814168;79;21096;-71
2022/12/06 00:10:53;;;;;;;9.23;5.50;;;;;;;;;;1813843;79;21060;-71
2022/12/06 00:13:19;;;;;;;9.15;4.60;;;;;;;;;;1813770;79;21059;-71
2022/12/06 00:15:46;;;;;;;7.80;4.45;;;;;;;;;;1812879;79;21036;-70
2022/12/06 00:18:12;;;;;;;8.23;4.50;;;;;;;;;;1807161;79;21113;-71
2022/12/06 00:20:38;;;;;;;7.83;4.87;;;;;;;;;;1800382;79;21103;-71
2022/12/06 00:23:04;;;;;;;10.30;5.17;;;;;;;;;;1800181;79;21013;-71
2022/12/06 00:25:33;;;;;;;7.30;4.03;;;;;;;;;;1797773;79;21026;-71
2022/12/06 00:27:59;;;;;;;10.78;5.55;;;;;;;;;;1785032;80;21037;-72
2022/12/06 00:30:26;;;;;;;8.60;4.28;;;;;;;;;;1799983;79;21081;-72
2022/12/06 00:32:52;;;;;;;9.93;5.15;;;;;;;;;;1799409;79;21063;-70
2022/12/06 00:35:18;;;;;;;7.72;4.35;;;;;;;;;;1798966;80;21619;-71
2022/12/06 00:37:43;;;;;;;8.60;4.97;;;;;;;;;;1798845;79;21010;-72
2022/12/06 00:40:11;;;;;;;7.47;4.87;;;;;;;;;;1787524;79;21013;-72
2022/12/06 00:42:37;;;;;;;12.88;5.30;;;;;;;;;;1773465;80;21116;-72
2022/12/06 00:45:04;;;;;;;8.38;3.90;;;;;;;;;;1799432;79;21560;-70
2022/12/06 00:47:31;;;;;;;7.25;4.12;;;;;;;;;;1799044;80;21867;-71
2022/12/06 00:49:57;;;;;;;8.35;4.30;;;;;;;;;;1781316;79;21157;-71
2022/12/06 00:52:24;;;;;;;14.40;4.90;;;;;;;;;;1773835;79;21062;-71
2022/12/06 00:54:50;;;;;;;8.03;4.92;;;;;;;;;;1799455;79;21085;-71
2022/12/06 00:57:16;;;;;;;9.15;4.87;;;;;;;;;;1802045;79;21025;-71
2022/12/06 00:59:44;;;;;;;10.65;5.05;;;;;;;;;;1801980;79;21001;-70
2022/12/06 01:02:10;;;;;;;11.30;5.08;;;;;;;;;;1794691;79;21014;-70
2022/12/06 01:04:38;;;;;;;11.68;4.83;;;;;;;;;;1773220;80;21041;-70
2022/12/06 01:07:04;;;;;;;9.48;5.03;;;;;;;;;;1787561;79;21022;-70
2022/12/06 01:09:30;;;;;;;7.85;4.45;;;;;;;;;;1783456;79;21020;-70
2022/12/06 01:11:57;;;;;;;12.63;6.00;;;;;;;;;;1766501;81;21535;-71
2022/12/06 01:14:23;;;;;;;13.22;5.12;;;;;;;;;;1780398;79;21037;-71
2022/12/06 01:16:50;;;;;;;8.68;4.95;;;;;;;;;;1768235;81;21081;-70
2022/12/06 01:19:16;;;;;;;8.15;4.12;;;;;;;;;;1786239;79;21029;-70
2022/12/06 01:21:42;;;;;;;8.78;4.83;;;;;;;;;;1799342;79;21058;-70
2022/12/06 01:24:08;;;;;;;9.20;5.58;;;;;;;;;;1771801;79;21065;-72
2022/12/06 01:26:35;;;;;;;9.33;4.83;;;;;;;;;;1767926;80;21096;-71
2022/12/06 01:29:01;;;;;;;9.73;4.65;;;;;;;;;;1772904;80;21037;-72
2022/12/06 01:31:28;;;;;;;8.80;5.22;;;;;;;;;;1778279;80;21608;-70
2022/12/06 01:33:55;;;;;;;10.75;5.00;;;;;;;;;;1768962;80;21479;-70
2022/12/06 01:36:22;;;;;;;10.53;4.20;;;;;;;;;;1788789;79;21067;-71
2022/12/06 01:38:49;;;;;;;6.45;3.42;;;;;;;;;;1789256;79;21069;-71
2022/12/06 01:41:16;;;;;;;10.55;5.20;;;;;;;;;;1773811;79;21009;-72
2022/12/06 01:43:42;;;;;;;10.68;5.62;;;;;;;;;;1781889;79;21100;-71
2022/12/06 01:46:13;;;;;;;6.50;4.20;;;;;;;;;;1768329;80;21023;-71
2022/12/06 01:48:42;;;;;;;9.85;4.47;;;;;;;;;;1781943;79;21060;-71
2022/12/06 01:51:10;;;;;;;12.78;6.28;;;;;;;;;;1789331;80;21069;-71
2022/12/06 01:53:36;;;;;;;7.95;4.35;;;;;;;;;;1799487;80;21053;-71
2022/12/06 01:56:03;;;;;;;9.28;5.40;;;;;;;;;;1785341;80;21025;-71
2022/12/06 01:58:31;;;;;;;10.43;5.47;;;;;;;;;;1769213;80;21048;-72
2022/12/06 02:03:47;;;;;;;11.97;5.58;;;;;;;;;;1778751;77;77640;-77
2022/12/06 02:06:13;;;;;;;10.13;5.42;;;;;;;;;;1794048;80;21005;-77
2022/12/06 02:08:40;;;;;;;13.62;6.00;;;;;;;;;;1796644;80;21034;-76
2022/12/06 02:11:07;;;;;;;8.78;4.58;;;;;;;;;;1796722;80;20996;-75
2022/12/06 02:13:33;;;;;;;9.25;4.60;;;;;;;;;;1794488;80;21053;-77
2022/12/06 02:16:01;;;;;;;9.80;5.12;;;;;;;;;;1793451;80;21085;-77
2022/12/06 02:18:29;;;;;;;12.43;5.70;;;;;;;;;;1793218;80;21048;-77
2022/12/06 02:20:57;;;;;;;12.58;4.87;;;;;;;;;;1793130;80;21021;-76
2022/12/06 02:23:31;;;;;;;10.65;4.58;;;;;;;;;;1790541;80;21127;-76
2022/12/06 02:25:57;;;;;;;;;;;;;;;;;;1795812;80;21493;-74
2022/12/06 02:28:40;;;;;;;9.40;5.60;;;;;;;;;;1793520;80;20134;-76
2022/12/06 02:31:10;;;;;;;14.20;6.33;;;;;;;;;;1793105;80;21041;-76
2022/12/06 02:33:38;;;;;;;12.37;6.30;;;;;;;;;;1791546;80;21056;-78
2022/12/06 02:36:09;;;;;;;11.57;6.22;;;;;;;;;;1785962;80;21050;-76
2022/12/06 02:38:40;;;;;;;11.65;4.65;;;;;;;;;;1792922;80;21084;-77
2022/12/06 02:41:07;;;;;;;10.32;5.03;;;;;;;;;;1793294;80;21037;-76
2022/12/06 02:43:35;;;;;;;9.35;5.25;;;;;;;;;;1793332;80;21917;-76
2022/12/06 02:46:01;;;;;;;11.80;5.17;;;;;;;;;;1793461;80;21029;-77
2022/12/06 02:48:27;;;;;;;12.03;5.83;;;;;;;;;;1793595;80;21081;-77
2022/12/06 02:50:55;;;;;;;7.72;5.05;;;;;;;;;;1793976;80;21484;-78
2022/12/06 02:53:22;;;;;;;9.60;5.15;;;;;;;;;;1793410;80;21076;-77
2022/12/06 02:55:49;;;;;;;8.10;4.37;;;;;;;;;;1793517;80;20993;-76
2022/12/06 02:58:15;;;;;;;8.13;4.47;;;;;;;;;;1793404;80;21485;-76
2022/12/06 03:00:42;;;;;;;10.88;5.60;;;;;;;;;;1793433;80;21061;-77
2022/12/06 06:26:51;;;;;;;9.83;5.92;;;;;;;;;;1816795;77;22134;-73
2022/12/06 06:29:18;;;;;;;10.68;5.97;;;;;;;;;;1765445;80;21067;-73
2022/12/06 06:31:44;;;;;;;13.48;6.15;;;;;;;;;;1775375;80;21471;-74
2022/12/06 06:34:10;;;;;;;8.18;4.60;;;;;;;;;;1770131;80;21036;-75
2022/12/06 06:36:36;;;;;;;11.22;5.95;;;;;;;;;;1773658;80;21040;-75
2022/12/06 06:39:02;;;;;;;9.63;5.45;;;;;;;;;;1768771;80;21012;-70
2022/12/06 06:41:28;;;;;;;10.13;5.45;;;;;;;;;;1774208;80;21032;-70
2022/12/06 06:43:54;;;;;;;9.58;5.42;;;;;;;;;;1773320;80;21071;-74
2022/12/06 06:46:21;;;;;;;8.38;4.87;;;;;;;;;;1787726;80;21036;-73
2022/12/06 07:04:12;;;;;;;9.55;4.85;;;;;;;;;;1738376;76;958355;-72
2022/12/06 07:06:39;;;;;;;13.78;5.28;;;;;;;;;;1710243;82;21126;-71
2022/12/06 07:09:05;;;;;;;10.30;5.87;;;;;;;;;;1696960;84;21531;-71
2022/12/06 07:11:31;;;;;;;12.85;6.65;;;;;;;;;;1696681;84;21086;-71
2022/12/06 07:13:58;;;;;;;13.72;7.65;;;;;;;;;;1705056;82;21115;-72
2022/12/06 07:16:23;;;;;;;15.13;7.78;;;;;;;;;;1727145;82;20969;-71
2022/12/06 07:18:49;;;;;;;13.65;7.20;;;;;;;;;;1723975;82;21044;-70
2022/12/06 07:21:16;;;;;;;11.63;6.97;;;;;;;;;;1730653;82;20997;-72
2022/12/06 07:23:41;;;;;;;14.83;7.97;;;;;;;;;;1731885;82;21016;-71
2022/12/06 07:26:12;;;;;;;17.52;9.30;;;;;;;;;;1723827;82;21585;-74
2022/12/06 07:28:39;;;;;;;20.65;9.60;;;;;;;;;;1723873;82;21067;-75
2022/12/06 07:31:10;;;;;;;17.80;9.45;;;;;;;;;;1729671;82;21018;-77
2022/12/06 07:33:36;;;;;;;34.10;12.60;;;;;;;;;;1728603;82;21064;-76
2022/12/06 07:36:03;;;;;;;16.07;7.20;;;;;;;;;;1731098;83;21119;-76
2022/12/06 07:38:30;;;;;;;15.00;7.20;;;;;;;;;;1730108;83;21015;-77
2022/12/06 07:41:00;;;;;;;11.08;5.78;;;;;;;;;;1729151;81;21047;-76
2022/12/06 07:46:11;;;;;;;13.88;6.20;;;;;;;;;;1725582;82;21560;-75
2022/12/06 07:48:37;;;;;;;12.80;6.60;;;;;;;;;;1729286;82;21516;-75
2022/12/06 07:51:04;;;;;;;10.08;5.35;;;;;;;;;;1730835;82;21543;-75
2022/12/06 07:53:30;;;;;;;16.30;7.37;;;;;;;;;;1720591;82;21115;-75
2022/12/06 07:55:57;;;;;;;19.95;8.43;;;;;;;;;;1711346;82;21513;-76
2022/12/06 07:58:23;;;;;;;10.93;5.97;;;;;;;;;;1735935;82;21621;-76
2022/12/06 08:00:50;;;;;;;12.80;6.05;;;;;;;;;;1722230;82;21051;-74
2022/12/06 08:03:16;;;;;;;13.70;6.55;;;;;;;;;;1719925;81;20960;-74
2022/12/06 08:05:42;;;;;;;13.30;6.80;;;;;;;;;;1718894;81;22188;-75
2022/12/06 08:08:09;;;;;;;9.15;5.30;;;;;;;;;;1758269;81;21226;-76
2022/12/06 08:10:35;;;;;;;12.33;5.67;;;;;;;;;;1769387;81;21047;-76
2022/12/06 08:13:02;;;;;;;21.02;8.18;;;;;;;;;;1738510;81;21076;-75
2022/12/06 08:15:29;;;;;;;10.18;6.10;;;;;;;;;;1737865;81;21051;-75
2022/12/06 08:17:55;;;;;;;15.40;6.78;;;;;;;;;;1709146;83;21099;-74
2022/12/06 08:20:22;;;;;;;20.32;7.25;;;;;;;;;;1736141;83;21459;-75
2022/12/06 08:22:48;;;;;;;10.95;5.92;;;;;;;;;;1714032;81;21508;-75
2022/12/06 08:25:17;;;;;;;20.60;7.67;;;;;;;;;;1739833;81;21044;-76
2022/12/06 08:27:43;;;;;;;11.57;5.35;;;;;;;;;;1714961;82;20980;-74
2022/12/06 08:30:09;;;;;;;16.62;6.72;;;;;;;;;;1731586;81;21098;-74
2022/12/06 08:32:36;;;;;;;11.45;5.20;;;;;;;;;;1715680;81;21557;-74
2022/12/06 08:35:03;;;;;;;9.83;4.80;;;;;;;;;;1721590;81;21060;-73
2022/12/06 08:37:30;;;;;;;8.75;5.12;;;;;;;;;;1751363;81;21027;-77
2022/12/06 08:39:56;;;;;;;12.05;6.50;;;;;;;;;;1741367;81;21549;-75
2022/12/06 08:42:22;;;;;;;7.87;4.45;;;;;;;;;;1712098;81;21088;-74
2022/12/06 08:44:50;;;;;;;7.65;4.60;;;;;;;;;;1707548;83;22374;-74
2022/12/06 08:47:16;;;;;;;10.48;4.50;;;;;;;;;;1735166;81;21591;-75
2022/12/06 08:49:42;;;;;;;7.20;3.90;;;;;;;;;;1737137;81;21523;-75
2022/12/06 08:52:08;;;;;;;7.72;4.15;;;;;;;;;;1739133;81;21047;-74
2022/12/06 08:54:35;;;;;;;5.87;3.65;;;;;;;;;;1736107;81;21083;-74
2022/12/06 08:57:02;;;;;;;9.30;5.08;;;;;;;;;;1745233;81;21585;-74
2022/12/06 08:59:28;;;;;;;9.40;5.08;;;;;;;;;;1738562;81;21064;-74
2022/12/06 09:01:54;;;;;;;6.75;3.75;;;;;;;;;;1701608;82;21546;-75
2022/12/06 09:04:21;;;;;;;5.62;3.37;;;;;;;;;;1727481;81;21072;-77
2022/12/06 09:06:47;;;;;;;6.75;3.80;;;;;;;;;;1767132;81;21020;-77
2022/12/06 09:09:14;;;;;;;7.05;3.67;;;;;;;;;;1733302;81;21083;-78
2022/12/06 09:11:41;;;;;;;6.25;3.37;;;;;;;;;;1738159;81;21032;-79
2022/12/06 09:14:08;;;;;;;5.03;3.12;;;;;;;;;;1735013;81;21083;-77
2022/12/06 09:16:34;;;;;;;7.50;4.10;;;;;;;;;;1712434;82;21040;-76
2022/12/06 09:19:00;;;;;;;6.00;3.47;;;;;;;;;;1727534;81;21012;-78
2022/12/06 09:21:29;;;;;;;6.87;3.70;;;;;;;;;;1736851;81;22118;-78
2022/12/06 09:23:55;;;;;;;6.22;3.35;;;;;;;;;;1729346;81;21009;-78
2022/12/06 09:26:21;;;;;;;7.42;4.28;;;;;;;;;;1728857;81;21484;-78
2022/12/06 09:28:49;;;;;;;5.87;3.58;;;;;;;;;;1726116;81;22412;-76
2022/12/06 09:31:16;;;;;;;5.25;3.27;;;;;;;;;;1733327;82;21001;-74
2022/12/06 09:33:42;;;;;;;6.20;3.45;;;;;;;;;;1738150;81;21079;-75
2022/12/06 09:36:11;;;;;;;7.97;4.78;;;;;;;;;;1730948;82;21061;-75
2022/12/06 09:38:37;;;;;;;5.42;3.25;;;;;;;;;;1734628;81;21055;-75
2022/12/06 09:41:23;;;;;;;7.70;4.50;;;;;;;;;;1726175;81;21527;-74
2022/12/06 09:43:51;;;;;;;7.72;3.90;;;;;;;;;;1725313;82;21026;-75
2022/12/06 09:46:19;;;;;;;8.35;4.05;;;;;;;;;;1717036;82;21030;-75
2022/12/06 09:48:56;;;;;;;7.12;3.85;;;;;;;;;;1723452;81;21526;-75
2022/12/06 09:51:30;;;;;;;10.70;4.45;;;;;;;;;;1723441;81;21011;-73
2022/12/06 09:54:01;;;;;;;6.85;3.30;;;;;;;;;;1725181;81;21112;-73
2022/12/06 09:56:29;;;;;;;7.37;3.80;;;;;;;;;;1715645;82;21059;-76
2022/12/06 09:59:03;;;;;;;9.33;3.70;;;;;;;;;;1714974;81;21084;-75
2022/12/06 10:01:34;;;;;;;6.22;3.90;;;;;;;;;;1713119;81;21075;-74
2022/12/06 10:04:05;;;;;;;7.08;3.52;;;;;;;;;;1717395;82;21102;-74
2022/12/06 10:14:25;;;;;;;11.90;6.00;;;;;;;;;;1814534;78;27677;-72
2022/12/06 10:17:03;;;;;;;9.90;5.42;;;;;;;;;;1828531;77;21042;-72
2022/12/06 10:19:47;;;;;;;10.68;4.33;;;;;;;;;;1844566;75;20984;-72
2022/12/06 10:22:15;;;;;;;11.93;5.33;;;;;;;;;;1841724;76;21045;-72
2022/12/06 10:24:49;;;;;;;7.05;3.95;;;;;;;;;;1855523;75;21016;-70
2022/12/06 10:27:23;;;;;;;8.53;4.47;;;;;;;;;;1804240;79;21080;-70
2022/12/06 10:29:59;;;;;;;11.90;4.90;;;;;;;;;;1805338;78;20993;-71
2022/12/06 10:32:44;;;;;;;8.25;4.83;;;;;;;;;;1809983;77;21063;-71
2022/12/06 10:35:13;;;;;;;7.12;4.00;;;;;;;;;;1804056;77;21101;-72
2022/12/06 10:37:41;;;;;;;10.38;4.78;;;;;;;;;;1747468;79;21014;-73
2022/12/06 10:40:22;;;;;;;6.37;4.17;;;;;;;;;;1806668;78;20977;-73
2022/12/06 10:42:50;;;;;;;7.62;4.45;;;;;;;;;;1809090;77;20997;-72
2022/12/06 10:48:07;;;;;;;8.35;4.12;;;;;;;;;;1806509;79;21141;-71
2022/12/06 10:50:33;;;;;;;5.83;3.80;;;;;;;;;;1803636;78;21671;-73
2022/12/06 10:53:02;;;;;;;8.15;4.28;;;;;;;;;;1829666;76;21036;-73
2022/12/06 10:55:30;;;;;;;9.20;4.30;;;;;;;;;;1818955;77;21479;-73
2022/12/06 10:57:58;;;;;;;6.47;4.22;;;;;;;;;;1835368;77;20964;-73
2022/12/06 11:00:26;;;;;;;6.92;4.37;;;;;;;;;;1824170;76;21024;-73
2022/12/06 11:02:54;;;;;;;10.82;5.22;;;;;;;;;;1831473;77;21053;-73
2022/12/06 11:05:31;;;;;;;5.90;3.65;;;;;;;;;;1821260;76;21043;-72
2022/12/06 11:08:02;;;;;;;6.92;4.30;;;;;;;;;;1832996;77;20996;-72
2022/12/06 11:10:29;;;;;;;9.35;4.40;;;;;;;;;;1810628;77;21122;-71
2022/12/06 11:12:57;;;;;;;6.35;3.85;;;;;;;;;;1820069;76;21000;-73
2022/12/06 11:15:25;;;;;;;7.87;4.30;;;;;;;;;;1799751;78;20980;-71
2022/12/06 11:17:52;;;;;;;7.95;4.60;;;;;;;;;;1830970;78;20997;-71
2022/12/06 11:20:26;;;;;;;8.40;3.98;;;;;;;;;;1827847;78;20976;-72
2022/12/06 11:23:04;;;;;;;4.40;3.12;;;;;;;;;;1782298;78;21076;-73
2022/12/06 11:25:29;;;;;;;7.30;4.03;;;;;;;;;;1824504;78;21047;-73
2022/12/06 11:27:55;;;;;;;9.08;4.62;;;;;;;;;;1832246;78;21578;-73
2022/12/06 11:30:22;;;;;;;12.58;5.55;;;;;;;;;;1834597;78;21012;-74
2022/12/06 11:32:49;;;;;;;10.32;5.40;;;;;;;;;;1818405;78;21032;-74
2022/12/06 11:35:17;;;;;;;8.18;3.90;;;;;;;;;;1833567;78;20979;-72
2022/12/06 11:37:43;;;;;;;7.03;4.55;;;;;;;;;;1830524;78;20922;-74
2022/12/06 11:40:23;;;;;;;6.65;4.12;;;;;;;;;;1838254;78;21110;-73
2022/12/06 11:42:50;;;;;;;8.20;4.85;;;;;;;;;;1820778;78;22161;-72
2022/12/06 11:45:26;;;;;;;6.25;3.98;;;;;;;;;;1835724;78;21078;-73
2022/12/06 11:47:53;;;;;;;6.42;4.30;;;;;;;;;;1823489;78;21493;-73
2022/12/06 11:50:20;;;;;;;6.53;3.92;;;;;;;;;;1817987;78;21015;-73
2022/12/06 11:52:48;;;;;;;7.17;4.05;;;;;;;;;;1829646;78;21260;-69
2022/12/06 11:55:20;;;;;;;8.35;4.90;;;;;;;;;;1821579;78;21582;-73
2022/12/06 11:57:51;;;;;;;9.28;4.70;;;;;;;;;;1832104;77;21087;-72
2022/12/06 12:00:32;;;;;;;7.00;4.70;;;;;;;;;;1832967;78;21034;-74
2022/12/06 12:03:06;;;;;;;6.30;4.03;;;;;;;;;;1785149;78;21657;-71
2022/12/06 12:05:37;;;;;;;7.35;4.22;;;;;;;;;;1799065;78;21442;-71
2022/12/06 12:08:01;;;;;;;8.13;4.20;;;;;;;;;;1814588;78;20977;-71
2022/12/06 12:10:35;;;;;;;5.83;3.70;;;;;;;;;;1807059;78;21143;-70
2022/12/06 12:15:51;;;;;;;12.82;4.10;;;;;;;;;;1865544;76;20957;-70
2022/12/06 12:18:22;;;;;;;7.50;4.42;;;;;;;;;;1814725;77;20994;-72
2022/12/06 12:20:48;;;;;;;10.05;5.42;;;;;;;;;;1825925;77;21023;-72
2022/12/06 12:23:18;;;;;;;10.32;4.65;;;;;;;;;;1829362;77;21063;-73
2022/12/06 12:25:46;;;;;;;9.40;4.83;;;;;;;;;;1824862;77;20977;-73
2022/12/06 12:28:23;;;;;;;7.58;4.92;;;;;;;;;;1813594;77;21031;-73
2022/12/06 12:30:53;;;;;;;9.33;4.55;;;;;;;;;;1800287;77;21078;-74
2022/12/06 12:33:20;;;;;;;8.58;4.30;;;;;;;;;;1817143;77;22168;-74
2022/12/06 12:35:51;;;;;;;9.28;4.80;;;;;;;;;;1832239;77;21091;-73
2022/12/06 12:38:19;;;;;;;9.70;5.20;;;;;;;;;;1830932;77;21064;-74
2022/12/06 12:40:47;;;;;;;9.73;4.72;;;;;;;;;;1818773;77;21518;-73
2022/12/06 12:43:19;;;;;;;8.88;4.97;;;;;;;;;;1831813;76;20993;-74
2022/12/06 12:46:04;;;;;;;6.80;3.90;;;;;;;;;;1821714;77;21016;-74
2022/12/06 12:48:30;;;;;;;10.93;5.30;;;;;;;;;;1808263;77;20973;-72
2022/12/06 12:50:57;;;;;;;7.87;4.60;;;;;;;;;;1804897;77;21036;-73
2022/12/06 12:53:40;;;;;;;7.35;4.67;;;;;;;;;;1819567;77;21496;-73
2022/12/06 12:56:09;;;;;;;9.23;4.60;;;;;;;;;;1820008;77;21001;-72
2022/12/06 12:58:34;;;;;;;10.23;5.17;;;;;;;;;;1810364;77;21023;-72
2022/12/06 13:01:02;;;;;;;9.20;4.83;;;;;;;;;;1846930;76;21040;-73
2022/12/06 13:03:29;;;;;;;9.75;5.12;;;;;;;;;;1839172;76;21095;-73
2022/12/06 13:05:56;;;;;;;8.75;5.30;;;;;;;;;;1840813;76;21024;-73
2022/12/06 13:08:25;;;;;;;8.60;5.35;;;;;;;;;;1855789;76;20977;-73
2022/12/06 13:10:54;;;;;;;8.80;5.12;;;;;;;;;;1846867;76;21590;-72
2022/12/06 13:13:28;;;;;;;11.20;5.95;;;;;;;;;;1850119;76;21007;-73
2022/12/06 13:15:55;;;;;;;10.10;5.62;;;;;;;;;;1821541;77;20999;-73
2022/12/06 13:18:39;;;;;;;12.25;5.22;;;;;;;;;;1799247;77;21503;-72
2022/12/06 13:21:07;;;;;;;10.45;5.30;;;;;;;;;;1817623;77;20981;-72
2022/12/06 13:23:34;;;;;;;9.18;5.20;;;;;;;;;;1818736;77;21069;-72
2022/12/06 13:26:07;;;;;;;8.18;4.78;;;;;;;;;;1824495;77;21035;-72
2022/12/06 13:28:37;;;;;;;8.55;5.45;;;;;;;;;;1838161;77;20966;-73
2022/12/06 13:31:04;;;;;;;10.20;5.35;;;;;;;;;;1808311;77;21495;-73
2022/12/06 13:33:31;;;;;;;8.73;5.10;;;;;;;;;;1816783;77;20977;-73
2022/12/06 13:36:02;;;;;;;10.38;5.60;;;;;;;;;;1820632;77;21059;-72
2022/12/06 13:38:29;;;;;;;14.60;4.97;;;;;;;;;;1822214;77;21032;-72
2022/12/06 13:40:59;;;;;;;8.88;5.10;;;;;;;;;;1819915;77;21086;-71
2022/12/06 13:43:28;;;;;;;8.30;4.53;;;;;;;;;;1809580;77;21072;-72
2022/12/06 13:45:56;;;;;;;6.75;4.30;;;;;;;;;;1842863;76;21016;-71
2022/12/06 13:48:26;;;;;;;8.90;4.28;;;;;;;;;;1821902;76;21430;-72
2022/12/06 13:50:54;;;;;;;7.55;4.30;;;;;;;;;;1849646;76;21573;-72
2022/12/06 13:53:22;;;;;;;12.53;5.00;;;;;;;;;;1822387;78;21077;-72
2022/12/06 13:55:50;;;;;;;7.35;4.58;;;;;;;;;;1793854;77;21027;-74
2022/12/06 13:58:18;;;;;;;9.28;4.70;;;;;;;;;;1798588;77;21344;-73
2022/12/06 14:00:47;;;;;;;9.00;4.00;;;;;;;;;;1794312;77;21024;-73
2022/12/06 14:03:18;;;;;;;9.28;4.62;;;;;;;;;;1812596;77;20975;-73
2022/12/06 14:06:01;;;;;;;7.70;4.47;;;;;;;;;;1839096;76;21460;-73
2022/12/06 14:08:32;;;;;;;8.77;5.30;;;;;;;;;;1832079;77;20968;-73
2022/12/06 14:11:06;;;;;;;6.60;4.25;;;;;;;;;;1826965;77;21039;-73
2022/12/06 14:13:32;;;;;;;4.85;3.50;;;;;;;;;;1854347;76;20979;-73
2022/12/06 14:15:59;;;;;;;8.05;4.67;;;;;;;;;;1816741;77;20993;-75
2022/12/06 14:18:26;;;;;;;7.95;4.75;;;;;;;;;;1867340;76;21029;-73
2022/12/06 14:20:53;;;;;;;9.10;4.90;;;;;;;;;;1868081;76;21016;-73
2022/12/06 14:23:24;;;;;;;7.55;3.52;;;;;;;;;;1878804;76;21503;-73
2022/12/06 14:25:50;;;;;;;8.38;4.17;;;;;;;;;;1869557;75;21547;-74
2022/12/06 14:28:17;;;;;;;7.40;3.87;;;;;;;;;;1813977;78;21012;-73
2022/12/06 14:30:44;;;;;;;8.48;4.10;;;;;;;;;;1820361;78;21020;-74
2022/12/06 14:33:18;;;;;;;14.35;7.67;;;;;;;;;;1787389;78;21011;-73
2022/12/06 14:35:46;;;;;;;7.12;4.10;;;;;;;;;;1817384;77;21050;-74
2022/12/06 14:51:44;;;;;;;11.95;5.95;;;;;;;;;;1763604;80;28129;-92
2022/12/06 14:54:15;;;;;;;11.33;5.90;;;;;;;;;;1742479;81;21066;-92
2022/12/06 14:56:43;;;;;;;9.53;4.80;;;;;;;;;;1738226;81;21048;-93
2022/12/06 14:59:09;;;;;;;12.63;6.72;;;;;;;;;;1740022;81;21053;-93
2022/12/06 15:01:37;;;;;;;9.90;6.47;;;;;;;;;;1749755;82;21037;-95
2022/12/06 15:04:04;;;;;;;12.03;7.87;;;;;;;;;;1722881;82;21028;-94
2022/12/06 15:06:31;;;;;;;12.55;6.97;;;;;;;;;;1776412;79;80895;-69
2022/12/06 15:08:59;;;;;;;9.93;6.40;;;;;;;;;;1794481;79;21550;-69
2022/12/06 15:14:12;;;;;;;9.40;6.05;;;;;;;;;;1780128;80;20996;-70
2022/12/06 15:16:39;;;;;;;9.65;6.00;;;;;;;;;;1788483;80;21043;-68
2022/12/06 15:19:07;;;;;;;9.80;6.62;;;;;;;;;;1782279;80;21082;-69
2022/12/06 15:21:34;;;;;;;9.18;5.78;;;;;;;;;;1814146;79;21032;-70
2022/12/06 15:24:00;;;;;;;9.80;5.47;;;;;;;;;;1807336;79;20990;-71
2022/12/06 15:26:26;;;;;;;10.55;5.60;;;;;;;;;;1811139;78;21020;-69
2022/12/06 15:28:53;;;;;;;11.18;6.12;;;;;;;;;;1809910;79;21074;-71
2022/12/06 15:31:20;;;;;;;9.98;5.70;;;;;;;;;;1794350;80;21536;-70
2022/12/06 15:33:46;;;;;;;9.28;5.08;;;;;;;;;;1784521;79;20984;-69
2022/12/06 15:36:17;;;;;;;7.70;5.17;;;;;;;;;;1783953;80;21491;-70
2022/12/06 15:38:42;;;;;;;12.68;4.58;;;;;;;;;;1787784;80;21517;-69
2022/12/06 15:41:10;;;;;;;9.75;5.40;;;;;;;;;;1785964;80;20973;-69
2022/12/06 15:43:37;;;;;;;15.80;5.17;;;;;;;;;;1800760;79;21052;-71
2022/12/06 15:46:04;;;;;;;11.20;5.75;;;;;;;;;;1805289;77;21000;-69
2022/12/06 15:48:30;;;;;;;11.25;5.47;;;;;;;;;;1753928;81;20978;-69
2022/12/06 15:50:57;;;;;;;12.07;5.03;;;;;;;;;;1749325;81;21491;-70
2022/12/06 15:53:23;;;;;;;11.22;5.17;;;;;;;;;;1787209;79;21514;-69
2022/12/06 15:55:50;;;;;;;11.08;5.37;;;;;;;;;;1787188;79;21041;-70
2022/12/06 15:58:16;;;;;;;9.50;5.95;;;;;;;;;;1786165;79;21019;-69
2022/12/06 16:00:43;;;;;;;10.63;6.58;;;;;;;;;;1788345;79;22158;-70
2022/12/06 16:03:09;;;;;;;9.08;4.42;;;;;;;;;;1786133;79;21050;-69
2022/12/06 16:05:35;;;;;;;9.75;5.12;;;;;;;;;;1790736;78;21078;-70
2022/12/06 16:08:01;;;;;;;8.58;4.65;;;;;;;;;;1785785;80;21016;-70
2022/12/06 16:10:27;;;;;;;9.20;4.37;;;;;;;;;;1789817;80;21490;-70
2022/12/06 16:15:38;;;;;;;11.12;5.42;;;;;;;;;;1788826;78;21079;-71
2022/12/06 16:18:05;;;;;;;11.15;6.58;;;;;;;;;;1784622;78;21019;-69
2022/12/06 16:20:31;;;;;;;10.78;5.35;;;;;;;;;;1783846;78;21030;-70
2022/12/06 16:25:43;;;;;;;10.03;5.25;;;;;;;;;;1779309;78;21314;-72
2022/12/06 16:28:09;;;;;;;13.43;6.65;;;;;;;;;;1783767;79;21028;-72
2022/12/06 16:30:35;;;;;;;11.80;6.65;;;;;;;;;;1781115;78;21727;-73
2022/12/06 16:33:02;;;;;;;10.68;5.55;;;;;;;;;;1787147;78;20983;-73
2022/12/06 16:35:28;;;;;;;11.22;6.17;;;;;;;;;;1780719;78;20988;-72
2022/12/06 16:37:54;;;;;;;10.58;5.95;;;;;;;;;;1779593;78;21047;-72
2022/12/06 16:40:21;;;;;;;13.65;6.45;;;;;;;;;;1783689;78;21843;-71
2022/12/06 16:42:47;;;;;;;10.80;5.05;;;;;;;;;;1778281;78;21203;-71
2022/12/06 16:45:14;;;;;;;22.93;9.50;;;;;;;;;;1786150;78;21047;-72
2022/12/06 16:47:40;;;;;;;44.50;16.07;;;;;;;;;;1784322;78;21026;-72
2022/12/06 16:50:08;;;;;;;11.65;5.22;;;;;;;;;;1785107;78;21066;-72
2022/12/06 16:52:34;;;;;;;15.38;6.75;;;;;;;;;;1783148;78;21039;-72
2022/12/06 16:55:00;;;;;;;17.80;7.55;;;;;;;;;;1777365;78;21059;-72
2022/12/06 16:57:27;;;;;;;20.17;8.30;;;;;;;;;;1781440;78;21092;-72
2022/12/06 16:59:53;;;;;;;15.25;5.97;;;;;;;;;;1778563;78;21046;-71
2022/12/06 17:02:25;;;;;;;16.17;6.90;;;;;;;;;;1778204;78;21066;-71
2022/12/06 17:04:51;;;;;;;11.45;5.72;;;;;;;;;;1782927;78;21557;-71
2022/12/06 17:07:17;;;;;;;9.08;5.33;;;;;;;;;;1781330;78;21011;-71
2022/12/06 17:09:44;;;;;;;6.22;4.30;;;;;;;;;;1783355;78;21031;-73
2022/12/06 17:12:12;;;;;;;11.53;6.05;;;;;;;;;;1785432;78;21062;-71
2022/12/06 17:14:38;;;;;;;10.32;4.80;;;;;;;;;;1784323;78;21043;-72
2022/12/06 17:17:04;;;;;;;12.45;6.33;;;;;;;;;;1784661;78;21050;-72
2022/12/06 17:19:31;;;;;;;10.43;5.40;;;;;;;;;;1788357;78;20995;-71
2022/12/06 17:21:57;;;;;;;8.58;4.12;;;;;;;;;;1784533;78;20973;-72
2022/12/06 17:24:24;;;;;;;10.70;4.87;;;;;;;;;;1786688;78;21566;-72
2022/12/06 17:26:52;;;;;;;10.25;5.35;;;;;;;;;;1783724;78;21545;-71
2022/12/06 17:29:20;;;;;;;9.00;4.72;;;;;;;;;;1782572;78;21039;-72
2022/12/06 17:31:46;;;;;;;9.80;4.50;;;;;;;;;;1782441;78;21031;-72
2022/12/06 17:34:12;;;;;;;9.80;4.15;;;;;;;;;;1790526;78;22282;-72
2022/12/06 17:36:39;;;;;;;8.05;5.17;;;;;;;;;;1785362;78;21019;-72
2022/12/06 17:39:07;;;;;;;8.60;4.40;;;;;;;;;;1784484;78;21027;-73
2022/12/06 17:44:18;;;;;;;6.60;4.62;;;;;;;;;;1784032;78;21007;-71
2022/12/06 17:46:44;;;;;;;7.97;4.70;;;;;;;;;;1785492;78;21023;-71
2022/12/06 17:49:14;;;;;;;9.78;5.20;;;;;;;;;;1783469;78;21074;-71
2022/12/06 17:51:40;;;;;;;7.90;4.22;;;;;;;;;;1785104;78;21074;-72
2022/12/06 17:54:06;;;;;;;6.03;3.77;;;;;;;;;;1787296;78;21038;-71
2022/12/06 17:56:36;;;;;;;11.55;5.83;;;;;;;;;;1782594;78;21034;-71
2022/12/06 17:59:03;;;;;;;7.78;4.47;;;;;;;;;;1789145;78;21050;-72
2022/12/06 18:01:29;;;;;;;10.50;4.67;;;;;;;;;;1784933;78;21058;-71
2022/12/06 18:03:57;;;;;;;12.03;5.70;;;;;;;;;;1787069;78;21067;-72
2022/12/06 18:06:23;;;;;;;9.70;4.75;;;;;;;;;;1790511;78;21047;-72
2022/12/06 18:08:50;;;;;;;6.90;4.47;;;;;;;;;;1787456;78;21038;-71
2022/12/06 18:11:16;;;;;;;9.13;4.55;;;;;;;;;;1781892;78;21004;-72
2022/12/06 18:13:43;;;;;;;7.97;4.70;;;;;;;;;;1795968;78;21079;-71
2022/12/06 18:16:14;;;;;;;10.68;5.03;;;;;;;;;;1784448;78;20967;-71
2022/12/06 18:18:40;;;;;;;8.75;5.08;;;;;;;;;;1789677;78;21062;-71
2022/12/06 18:21:07;;;;;;;9.08;5.10;;;;;;;;;;1784177;78;21019;-71
2022/12/06 18:23:33;;;;;;;7.10;4.03;;;;;;;;;;1784021;78;21061;-72
2022/12/06 18:26:02;;;;;;;7.17;4.83;;;;;;;;;;1785937;78;21742;-73
2022/12/06 18:28:28;;;;;;;9.73;4.90;;;;;;;;;;1788578;78;21521;-72
2022/12/06 18:30:54;;;;;;;10.65;5.12;;;;;;;;;;1785784;78;21637;-72
2022/12/06 18:33:20;;;;;;;13.58;4.83;;;;;;;;;;1785822;78;21071;-72
2022/12/06 18:35:46;;;;;;;12.60;4.72;;;;;;;;;;1789429;78;21004;-74
2022/12/06 18:38:12;;;;;;;8.58;5.60;;;;;;;;;;1781164;78;21004;-72
2022/12/06 18:40:38;;;;;;;10.82;4.92;;;;;;;;;;1788435;78;21058;-71
2022/12/06 18:43:05;;;;;;;9.18;5.42;;;;;;;;;;1785455;78;22300;-72
2022/12/06 19:11:00;;;;;;;17.90;9.68;;;;;;;;;;1830050;77;22146;-68
2022/12/06 19:13:27;;;;;;;12.50;6.62;;;;;;;;;;1774450;80;20997;-68
2022/12/06 19:15:55;;;;;;;11.35;5.75;;;;;;;;;;1771193;80;21071;-68
2022/12/06 19:18:22;;;;;;;14.95;7.42;;;;;;;;;;1780398;80;21045;-68
2022/12/06 19:20:47;;;;;;;9.35;5.78;;;;;;;;;;1780072;80;21080;-68
2022/12/06 19:23:15;;;;;;;9.83;5.15;;;;;;;;;;1763773;80;21040;-68
2022/12/06 19:25:41;;;;;;;10.35;5.53;;;;;;;;;;1772039;80;20988;-67
2022/12/06 19:28:07;;;;;;;7.78;4.50;;;;;;;;;;1789289;80;20986;-68
2022/12/06 19:30:33;;;;;;;8.53;5.17;;;;;;;;;;1780549;80;21371;-68